Angelholm-Helsingborg Airport


Codes: ESTA/AGH
Name: Angelholm-Helsingborg Airport
City: Angelholm
Country: Sweden
Elevation: 68 ft.
Website:
Wikipedia:

Photos at Angelholm-Helsingborg Airport


   Photos courtesy of SpottingLog. You can add your own sightings and photos by signing up for a free trial today.



No photos found.

Weather at Angelholm-Helsingborg Airport


Time (UTC)DescriptionTempratureWindCloud coverageVisibilityPressureHumidity
23-May-2024 21:00Light Rain16°C4 mph, SE83%10000m1014hPa86%
24-May-2024 00:00Light Rain15°C2 mph, SE92%10000m1015hPa92%
24-May-2024 03:00Light Rain14°C9 mph, W100%10000m1017hPa96%
24-May-2024 06:00Overcast Clouds14°C9 mph, NW99%10000m1019hPa92%
24-May-2024 09:00Broken Clouds16°C11 mph, NW76%10000m1020hPa78%
24-May-2024 12:00Broken Clouds17°C11 mph, NW83%10000m1021hPa74%
24-May-2024 15:00Overcast Clouds16°C9 mph, NW93%10000m1021hPa76%
24-May-2024 18:00Overcast Clouds15°C7 mph, NW97%10000m1021hPa84%
24-May-2024 21:00Broken Clouds14°C4 mph, N80%10000m1021hPa87%
25-May-2024 00:00Broken Clouds14°C2 mph, N81%10000m1020hPa87%
25-May-2024 03:00Broken Clouds13°C2 mph, NE52%10000m1020hPa92%
25-May-2024 06:00Broken Clouds17°C4 mph, E64%10000m1020hPa82%
25-May-2024 09:00Broken Clouds21°C7 mph, E62%10000m1019hPa58%
25-May-2024 12:00Broken Clouds23°C2 mph, SE71%10000m1018hPa56%
25-May-2024 15:00Light Rain23°C7 mph, SE33%10000m1018hPa57%
25-May-2024 18:00Few Clouds20°C7 mph, SE20%10000m1018hPa74%
25-May-2024 21:00Clear Sky15°C9 mph, E5%10000m1019hPa88%
26-May-2024 00:00Few Clouds15°C11 mph, E14%10000m1019hPa87%
26-May-2024 03:00Light Rain14°C9 mph, E76%10000m1019hPa94%
26-May-2024 06:00Broken Clouds18°C13 mph, E54%10000m1019hPa80%
26-May-2024 09:00Scattered Clouds22°C16 mph, SE32%10000m1019hPa59%
26-May-2024 12:00Broken Clouds23°C13 mph, SE58%10000m1019hPa55%
26-May-2024 15:00Overcast Clouds22°C11 mph, SE97%10000m1018hPa60%
26-May-2024 18:00Overcast Clouds18°C11 mph, SE93%10000m1019hPa73%
26-May-2024 21:00Scattered Clouds13°C9 mph, E49%10000m1019hPa94%
27-May-2024 00:00Light Rain13°C9 mph, E75%10000m1019hPa97%
27-May-2024 03:00Light Rain12°C7 mph, E90%10000m1018hPa95%
27-May-2024 06:00Broken Clouds17°C9 mph, SE69%10000m1018hPa85%
27-May-2024 09:00Light Rain22°C11 mph, SE50%10000m1017hPa58%
27-May-2024 12:00Light Rain22°C13 mph, S72%10000m1017hPa61%
27-May-2024 15:00Light Rain21°C11 mph, S100%10000m1016hPa66%
27-May-2024 18:00Light Rain18°C7 mph, S100%10000m1017hPa82%
27-May-2024 21:00Overcast Clouds15°C7 mph, SE99%10000m1017hPa95%
28-May-2024 00:00Overcast Clouds14°C4 mph, SE98%10000m1016hPa96%
28-May-2024 03:00Broken Clouds13°C7 mph, E71%10000m1015hPa96%
28-May-2024 06:00Broken Clouds17°C7 mph, SE82%10000m1014hPa83%
28-May-2024 09:00Overcast Clouds21°C13 mph, SE87%10000m1013hPa67%
28-May-2024 12:00Broken Clouds23°C18 mph, SE84%10000m1012hPa57%
28-May-2024 15:00Light Rain21°C18 mph, SE52%10000m1011hPa65%
28-May-2024 18:00Light Rain17°C11 mph, S41%10000m1012hPa89%